Time;durP1;ratioP1;P1;durP2;ratioP2;P2;SDS_P1;SDS_P2;PMS_P1;PMS_P2;Temp;Humidity;BMP_temperature;BMP_pressure;BME280_temperature;BME280_humidity;BME280_pressure;Samples;Min_cycle;Max_cycle;Signal;HPM_P1;HPM_P2
2021/08/30 00:00:41;;;;;;;26.33;13.65;;;25.10;65.20;;;;;;5139787;27;20067;-43
2021/08/30 00:03:07;;;;;;;21.45;13.65;;;25.10;65.20;;;;;;5140268;27;20031;-42
2021/08/30 00:05:33;;;;;;;22.77;14.95;;;25.10;65.40;;;;;;5139655;27;20039;-36
2021/08/30 00:07:59;;;;;;;19.73;13.80;;;25.00;65.50;;;;;;5139648;27;20027;-34
2021/08/30 00:10:25;;;;;;;22.92;13.32;;;25.00;65.80;;;;;;5139409;27;20034;-34
2021/08/30 00:12:51;;;;;;;26.23;14.80;;;25.00;66.00;;;;;;5140018;27;20029;-35
2021/08/30 00:15:17;;;;;;;23.20;15.07;;;25.00;66.10;;;;;;5139569;27;20426;-36
2021/08/30 00:17:45;;;;;;;24.10;14.00;;;25.00;66.30;;;;;;5139657;27;20031;-43
2021/08/30 00:20:15;;;;;;;18.60;13.05;;;25.00;66.40;;;;;;5139518;27;20118;-34
2021/08/30 00:22:42;;;;;;;18.50;15.50;;;25.00;66.60;;;;;;5139480;27;20068;-36
2021/08/30 00:25:09;;;;;;;30.83;14.77;;;25.00;66.80;;;;;;5139458;27;20112;-44
2021/08/30 00:27:35;;;;;;;22.67;16.25;;;24.90;67.00;;;;;;5139218;27;20073;-35
2021/08/30 00:30:01;;;;;;;18.75;14.68;;;24.90;67.20;;;;;;5139425;27;20027;-35
2021/08/30 00:32:27;;;;;;;24.35;16.48;;;24.90;67.40;;;;;;5138727;27;20027;-35
2021/08/30 00:34:52;;;;;;;21.63;15.40;;;24.90;67.80;;;;;;5139602;27;20284;-42
2021/08/30 00:37:18;;;;;;;20.67;15.50;;;24.90;68.10;;;;;;5138989;27;20340;-42
2021/08/30 00:39:46;;;;;;;18.08;13.18;;;24.90;68.40;;;;;;5139540;27;20429;-34
2021/08/30 00:42:12;;;;;;;24.23;15.25;;;24.90;68.70;;;;;;5139063;27;20034;-33
2021/08/30 00:44:38;;;;;;;23.25;15.23;;;24.80;68.90;;;;;;5139144;27;20051;-33
2021/08/30 00:47:04;;;;;;;16.77;13.90;;;24.80;69.00;;;;;;5139054;27;20023;-34
2021/08/30 00:49:30;;;;;;;22.63;16.80;;;24.80;69.30;;;;;;5138918;27;20032;-42
2021/08/30 00:51:56;;;;;;;16.65;14.00;;;24.80;69.50;;;;;;5139039;27;20035;-44
2021/08/30 00:54:24;;;;;;;27.00;15.18;;;24.80;69.70;;;;;;5138736;27;20082;-33
2021/08/30 00:56:49;;;;;;;20.20;17.40;;;24.80;69.80;;;;;;5138878;27;20028;-33
2021/08/30 00:59:15;;;;;;;22.10;17.33;;;24.70;69.90;;;;;;5138780;27;20322;-33
2021/08/30 01:01:41;;;;;;;19.75;15.25;;;24.70;70.00;;;;;;5138725;27;20031;-40
2021/08/30 01:04:09;;;;;;;16.77;14.68;;;24.70;70.10;;;;;;5138793;27;20300;-42
2021/08/30 01:06:53;;;;;;;18.27;15.05;;;24.70;70.10;;;;;;5138731;27;20027;-43
2021/08/30 01:09:44;;;;;;;20.48;16.73;;;24.70;70.10;;;;;;5138871;27;20470;-33
2021/08/30 01:12:13;;;;;;;20.48;14.90;;;24.70;70.50;;;;;;5138452;27;20031;-34
2021/08/30 01:15:04;;;;;;;21.38;17.27;;;24.60;70.50;;;;;;5138591;27;20110;-42
2021/08/30 01:17:33;;;;;;;29.92;18.90;;;24.60;70.50;;;;;;5138446;27;20315;-33
2021/08/30 01:20:07;;;;;;;25.30;16.83;;;24.60;71.00;;;;;;5138450;27;20054;-41
2021/08/30 01:22:35;;;;;;;20.98;15.20;;;24.60;71.20;;;;;;5138517;27;20511;-42
2021/08/30 01:25:02;;;;;;;25.70;17.02;;;24.60;71.40;;;;;;5138438;27;20373;-35
2021/08/30 01:27:29;;;;;;;24.42;18.35;;;24.60;71.70;;;;;;5138238;27;20333;-42
2021/08/30 01:30:07;;;;;;;21.33;17.25;;;24.60;71.90;;;;;;5138532;27;20024;-34
2021/08/30 01:32:40;;;;;;;22.13;17.75;;;24.60;71.90;;;;;;5138119;27;20023;-42
2021/08/30 01:35:12;;;;;;;21.65;16.80;;;24.60;72.10;;;;;;5138267;27;20423;-42
2021/08/30 01:37:40;;;;;;;31.23;16.30;;;24.60;72.20;;;;;;5138079;27;20031;-33
2021/08/30 01:40:09;;;;;;;27.63;17.63;;;24.60;72.20;;;;;;5137945;27;20266;-33
2021/08/30 01:42:38;;;;;;;21.55;18.63;;;24.50;72.30;;;;;;5137826;27;20035;-43
2021/08/30 01:45:09;;;;;;;21.13;16.80;;;24.50;72.30;;;;;;5137231;27;20043;-34
2021/08/30 01:47:35;;;;;;;23.60;17.02;;;24.50;72.30;;;;;;5137472;27;20075;-41
2021/08/30 01:50:03;;;;;;;24.15;18.65;;;24.50;72.40;;;;;;5137889;27;20023;-33
2021/08/30 01:52:40;;;;;;;27.88;16.70;;;24.50;72.30;;;;;;5137589;27;20402;-33
2021/08/30 01:55:28;;;;;;;20.58;15.60;;;24.50;72.30;;;;;;5137766;27;20118;-33
2021/08/30 02:00:48;;;;;;;24.57;17.33;;;24.50;72.30;;;;;;5137625;27;20179;-34
2021/08/30 02:03:17;;;;;;;22.58;15.85;;;24.50;72.30;;;;;;5137640;27;20109;-35
2021/08/30 02:05:54;;;;;;;33.77;16.67;;;24.50;72.80;;;;;;5119225;27;20465;-42
2021/08/30 02:08:22;;;;;;;27.17;17.45;;;24.50;72.20;;;;;;5137674;27;20255;-40
2021/08/30 02:10:54;;;;;;;18.42;15.90;;;24.40;72.20;;;;;;5137353;27;20066;-33
2021/08/30 02:13:23;;;;;;;26.88;17.23;;;24.40;72.30;;;;;;5137760;27;20311;-34
2021/08/30 02:15:49;;;;;;;23.60;16.83;;;24.40;72.30;;;;;;5137419;27;20035;-33
2021/08/30 02:18:36;;;;;;;23.25;16.20;;;24.40;72.40;;;;;;5119059;27;20163;-34
2021/08/30 02:21:11;;;;;;;23.75;15.55;;;24.40;72.50;;;;;;5137180;27;20043;-42
2021/08/30 02:23:46;;;;;;;25.42;17.17;;;24.40;72.60;;;;;;5137550;27;20035;-33
2021/08/30 02:26:20;;;;;;;25.17;17.77;;;24.40;72.70;;;;;;5137496;27;20407;-43
2021/08/30 02:28:47;;;;;;;25.83;15.60;;;24.40;72.90;;;;;;5137723;27;20102;-43
2021/08/30 02:31:15;;;;;;;22.80;16.13;;;24.40;72.90;;;;;;5136915;27;20028;-35
2021/08/30 02:33:41;;;;;;;20.48;15.05;;;24.40;73.00;;;;;;5118928;27;20058;-43
2021/08/30 02:36:09;;;;;;;25.73;16.17;;;24.30;73.00;;;;;;5136791;27;20327;-37
2021/08/30 02:38:36;;;;;;;20.52;15.60;;;24.30;73.70;;;;;;5137297;27;20031;-34
2021/08/30 02:41:04;;;;;;;20.48;15.73;;;24.30;73.10;;;;;;5137177;27;20054;-39
2021/08/30 02:43:31;;;;;;;21.67;15.77;;;24.30;73.10;;;;;;5137245;27;20030;-44
2021/08/30 02:45:58;;;;;;;19.27;14.88;;;24.30;73.00;;;;;;5137076;27;20111;-45
2021/08/30 02:48:25;;;;;;;20.65;15.93;;;24.30;73.00;;;;;;5137174;27;20280;-42
2021/08/30 02:50:52;;;;;;;21.75;16.50;;;24.30;73.00;;;;;;5136766;27;20347;-34
2021/08/30 02:53:21;;;;;;;18.83;14.73;;;24.30;72.90;;;;;;5136621;28;20051;-43
2021/08/30 02:55:47;;;;;;;24.88;16.08;;;24.30;72.80;;;;;;5136356;27;20039;-35
2021/08/30 02:58:13;;;;;;;23.10;15.93;;;24.30;72.80;;;;;;5136963;28;20063;-43
2021/08/30 03:00:39;;;;;;;23.08;15.57;;;24.30;72.80;;;;;;5136996;28;20053;-35
2021/08/30 03:03:05;;;;;;;24.63;15.65;;;24.20;72.80;;;;;;5137204;28;20027;-43
2021/08/30 03:05:33;;;;;;;23.30;17.98;;;24.20;72.80;;;;;;5136524;28;20114;-44
2021/08/30 03:07:59;;;;;;;26.27;15.45;;;24.20;72.90;;;;;;5136970;28;20034;-35
2021/08/30 03:10:25;;;;;;;18.58;16.65;;;24.20;73.10;;;;;;5136433;28;20084;-43
2021/08/30 03:12:54;;;;;;;22.88;15.30;;;24.20;73.10;;;;;;5136829;28;20027;-36
2021/08/30 03:15:23;;;;;;;20.75;14.45;;;24.20;73.30;;;;;;5136648;28;20361;-42
2021/08/30 03:17:51;;;;;;;22.60;16.35;;;24.20;73.40;;;;;;5136870;28;20031;-43
2021/08/30 03:20:24;;;;;;;20.55;14.90;;;24.20;73.50;;;;;;5136414;28;20035;-35
2021/08/30 03:22:51;;;;;;;22.23;15.80;;;24.20;73.40;;;;;;5136883;28;20103;-35
2021/08/30 03:25:19;;;;;;;17.13;13.20;;;24.20;73.50;;;;;;5136662;28;20031;-35
2021/08/30 03:27:46;;;;;;;21.23;14.75;;;24.20;73.30;;;;;;5136522;28;20038;-43
2021/08/30 03:30:15;;;;;;;18.58;15.23;;;24.20;73.30;;;;;;5136725;28;20027;-36
2021/08/30 03:32:43;;;;;;;22.10;16.00;;;24.20;73.20;;;;;;5136457;28;20030;-34
2021/08/30 03:35:11;;;;;;;17.98;14.88;;;24.20;73.10;;;;;;5136504;28;20030;-35
2021/08/30 03:37:38;;;;;;;20.23;14.25;;;24.20;73.00;;;;;;5136326;28;20420;-44
2021/08/30 03:40:06;;;;;;;21.17;15.80;;;24.20;72.90;;;;;;5136544;28;20063;-35
2021/08/30 03:42:33;;;;;;;18.60;13.88;;;24.20;72.90;;;;;;5136106;28;20031;-44
2021/08/30 03:44:59;;;;;;;17.58;14.77;;;24.20;72.80;;;;;;5136247;28;20043;-44
2021/08/30 03:47:24;;;;;;;17.45;13.38;;;24.20;72.60;;;;;;5136081;28;20034;-41
2021/08/30 03:49:52;;;;;;;20.30;13.60;;;24.30;72.70;;;;;;5136127;28;20410;-35
2021/08/30 03:52:18;;;;;;;18.60;13.65;;;24.30;72.60;;;;;;5136109;28;20109;-43
2021/08/30 03:54:44;;;;;;;20.33;13.77;;;24.30;72.60;;;;;;5135975;28;20051;-43
2021/08/30 03:57:14;;;;;;;16.70;13.70;;;24.30;72.50;;;;;;5135839;28;20046;-43
2021/08/30 03:59:42;;;;;;;23.88;14.50;;;24.30;72.50;;;;;;5135992;28;20046;-44
2021/08/30 04:02:09;;;;;;;19.52;14.63;;;24.30;72.50;;;;;;5135809;28;20031;-33
2021/08/30 04:04:35;;;;;;;17.65;13.52;;;24.30;72.40;;;;;;5135648;28;20043;-42
2021/08/30 04:07:02;;;;;;;21.05;13.45;;;24.40;72.30;;;;;;5136764;27;20027;-42
2021/08/30 04:09:29;;;;;;;17.60;12.68;;;24.40;72.30;;;;;;5139727;27;20027;-33
2021/08/30 04:11:55;;;;;;;21.80;13.48;;;24.30;72.20;;;;;;5139486;27;20019;-36
2021/08/30 04:14:22;;;;;;;23.63;15.15;;;24.40;72.00;;;;;;5139328;27;20031;-34
2021/08/30 04:16:48;;;;;;;21.65;13.40;;;24.40;71.70;;;;;;5139171;27;20360;-42
2021/08/30 04:19:14;;;;;;;17.55;13.43;;;24.40;71.70;;;;;;5120990;27;20039;-43
2021/08/30 04:21:40;;;;;;;23.45;14.20;;;24.40;71.60;;;;;;5139207;27;20474;-34
2021/08/30 04:24:06;;;;;;;27.05;16.25;;;24.40;71.60;;;;;;5138994;27;20106;-42
2021/08/30 04:26:31;;;;;;;17.25;13.88;;;24.50;71.60;;;;;;5139079;27;20020;-43
2021/08/30 04:28:57;;;;;;;21.55;13.90;;;24.50;71.40;;;;;;5139804;27;20072;-43
2021/08/30 04:31:22;;;;;;;19.92;13.88;;;24.50;71.60;;;;;;5138848;27;20311;-43
2021/08/30 04:33:48;;;;;;;25.88;15.68;;;24.60;71.70;;;;;;5139482;27;20314;-42
2021/08/30 04:36:14;;;;;;;21.98;13.50;;;24.60;71.40;;;;;;5138691;27;20031;-42
2021/08/30 04:38:39;;;;;;;20.20;14.50;;;24.60;71.20;;;;;;5139316;27;20027;-34
2021/08/30 04:41:05;;;;;;;22.17;14.80;;;24.70;71.40;;;;;;5139154;27;20038;-43
2021/08/30 04:43:31;;;;;;;22.20;15.88;;;24.70;71.40;;;;;;5139159;27;20042;-36
2021/08/30 04:45:56;;;;;;;21.60;16.10;;;24.80;71.00;;;;;;5138704;27;20050;-42
2021/08/30 04:48:22;;;;;;;114.03;89.68;;;24.80;70.90;;;;;;5139007;27;20403;-35
2021/08/30 04:50:48;;;;;;;82.00;67.07;;;24.80;70.90;;;;;;5138554;27;20111;-36
2021/08/30 04:53:13;;;;;;;107.50;93.55;;;24.90;70.80;;;;;;5138356;27;20043;-36
2021/08/30 04:55:39;;;;;;;58.80;49.53;;;24.90;70.50;;;;;;5138229;27;20066;-36
2021/08/30 04:58:09;;;;;;;64.18;57.13;;;25.00;70.60;;;;;;5138886;27;20102;-35
2021/08/30 05:00:35;;;;;;;39.30;34.28;;;25.00;70.30;;;;;;5138370;27;20110;-42
2021/08/30 05:03:00;;;;;;;60.05;39.67;;;25.10;70.50;;;;;;5138848;27;20155;-41
2021/08/30 05:05:26;;;;;;;25.25;21.50;;;25.10;70.10;;;;;;5138497;27;20399;-35
2021/08/30 05:07:51;;;;;;;28.80;19.35;;;25.20;69.60;;;;;;5138846;27;20023;-35
2021/08/30 05:10:17;;;;;;;26.63;15.40;;;25.30;69.50;;;;;;5138612;27;20327;-43
2021/08/30 05:12:43;;;;;;;32.25;24.17;;;25.30;69.40;;;;;;5138337;27;20061;-34
2021/08/30 05:15:09;;;;;;;22.33;16.23;;;25.40;69.00;;;;;;5138303;27;20160;-44
2021/08/30 05:17:34;;;;;;;21.00;14.30;;;25.40;68.00;;;;;;5137864;27;20027;-36
2021/08/30 05:20:00;;;;;;;67.10;56.00;;;25.50;67.20;;;;;;5138560;27;20031;-35
2021/08/30 05:22:26;;;;;;;70.88;56.17;;;25.50;66.90;;;;;;5137609;27;20403;-35
2021/08/30 05:24:51;;;;;;;53.80;41.60;;;25.60;66.40;;;;;;5138025;27;20363;-35
2021/08/30 05:27:17;;;;;;;33.65;26.90;;;25.60;65.30;;;;;;5137788;27;20095;-36
2021/08/30 05:29:43;;;;;;;23.42;17.58;;;25.60;64.90;;;;;;5137564;27;20031;-33
2021/08/30 05:32:09;;;;;;;29.05;18.98;;;25.70;63.30;;;;;;5137570;27;20055;-35
2021/08/30 05:34:34;;;;;;;27.73;18.83;;;25.70;63.40;;;;;;5137567;27;20042;-43
2021/08/30 05:37:00;;;;;;;23.67;18.02;;;25.70;62.90;;;;;;5137256;27;20357;-39
2021/08/30 05:39:26;;;;;;;26.35;14.40;;;25.70;62.60;;;;;;5137882;27;20110;-37
2021/08/30 05:41:52;;;;;;;18.80;12.05;;;25.70;62.30;;;;;;5137475;27;20407;-35
2021/08/30 05:44:17;;;;;;;28.00;23.63;;;25.80;62.10;;;;;;5137165;27;20066;-35
2021/08/30 05:46:43;;;;;;;20.52;12.75;;;25.80;62.00;;;;;;5137460;27;20059;-43
2021/08/30 05:49:09;;;;;;;24.02;17.92;;;25.80;61.10;;;;;;5137526;27;20118;-35
2021/08/30 05:51:34;;;;;;;29.75;21.48;;;25.80;61.20;;;;;;5137204;27;20467;-35
2021/08/30 05:54:00;;;;;;;25.90;15.90;;;25.90;61.30;;;;;;5137186;27;20083;-34
2021/08/30 05:56:27;;;;;;;24.98;15.13;;;25.90;60.90;;;;;;5136559;27;20034;-43
2021/08/30 05:58:53;;;;;;;32.20;22.85;;;25.90;61.00;;;;;;5137445;27;20042;-42
2021/08/30 06:01:19;;;;;;;29.45;20.27;;;25.90;61.10;;;;;;5137018;27;20039;-43
2021/08/30 06:03:45;;;;;;;26.25;20.80;;;25.90;60.90;;;;;;5137229;27;20396;-44
2021/08/30 06:06:10;;;;;;;23.33;15.48;;;25.90;61.10;;;;;;5137008;27;20108;-31
2021/08/30 06:08:36;;;;;;;21.00;15.88;;;26.00;60.80;;;;;;5136853;27;20156;-33
2021/08/30 06:11:02;;;;;;;27.58;15.65;;;26.00;60.00;;;;;;5136684;27;20027;-34
2021/08/30 06:13:28;;;;;;;28.00;13.13;;;26.00;60.00;;;;;;5137128;27;20415;-33
2021/08/30 06:15:53;;;;;;;20.65;10.93;;;26.00;59.10;;;;;;5137079;27;20322;-34
2021/08/30 06:18:19;;;;;;;19.65;11.25;;;26.10;58.80;;;;;;5137057;27;20430;-34
2021/08/30 06:20:45;;;;;;;28.10;15.10;;;26.10;59.10;;;;;;5137007;27;20135;-31
2021/08/30 06:23:11;;;;;;;25.63;16.25;;;26.20;59.40;;;;;;5136802;27;20071;-34
2021/08/30 06:25:36;;;;;;;20.65;13.75;;;26.20;59.40;;;;;;5136892;27;20027;-31
2021/08/30 06:28:02;;;;;;;20.85;12.63;;;26.30;59.20;;;;;;5136983;27;20023;-31
2021/08/30 06:30:28;;;;;;;26.77;16.48;;;26.30;58.90;;;;;;5135609;27;20423;-32
2021/08/30 06:32:55;;;;;;;26.08;13.27;;;26.40;59.00;;;;;;5136587;27;20030;-31
2021/08/30 06:35:21;;;;;;;24.20;14.57;;;26.40;58.70;;;;;;5136239;27;20023;-43
2021/08/30 06:37:47;;;;;;;20.70;14.38;;;26.40;59.00;;;;;;5136305;27;20066;-44
2021/08/30 06:40:13;;;;;;;19.58;12.30;;;26.40;58.90;;;;;;5136527;27;20066;-45
2021/08/30 06:42:39;;;;;;;21.65;13.32;;;26.40;58.70;;;;;;5136428;27;20035;-38
2021/08/30 06:45:05;;;;;;;23.40;13.57;;;26.40;58.70;;;;;;5136319;27;20084;-44
2021/08/30 06:47:31;;;;;;;21.15;13.15;;;26.40;58.00;;;;;;5136212;27;20062;-38
2021/08/30 06:49:57;;;;;;;28.60;15.63;;;26.40;57.60;;;;;;5136584;27;20027;-43
2021/08/30 06:52:23;;;;;;;29.95;15.15;;;26.50;57.80;;;;;;5136463;27;20364;-44
2021/08/30 06:54:49;;;;;;;18.55;12.50;;;26.50;58.00;;;;;;5136058;28;20055;-44
2021/08/30 06:57:15;;;;;;;25.15;13.57;;;26.50;57.60;;;;;;5117842;28;20376;-40
2021/08/30 06:59:41;;;;;;;26.55;13.40;;;26.50;57.80;;;;;;5136364;28;20035;-43
2021/08/30 07:02:07;;;;;;;23.27;15.80;;;26.50;58.10;;;;;;5136170;28;20472;-37
2021/08/30 07:04:33;;;;;;;22.85;12.80;;;26.50;58.90;;;;;;5136392;28;20039;-38
2021/08/30 07:06:58;;;;;;;19.15;12.02;;;26.50;59.30;;;;;;5136178;28;20408;-44
2021/08/30 07:09:24;;;;;;;20.67;12.85;;;26.60;60.20;;;;;;5136178;28;20105;-38
2021/08/30 07:11:51;;;;;;;24.02;13.15;;;26.60;61.00;;;;;;5136418;28;20031;-43
2021/08/30 07:14:17;;;;;;;18.60;13.77;;;26.70;62.20;;;;;;5136193;28;20110;-37
2021/08/30 07:16:43;;;;;;;21.90;16.17;;;26.70;62.60;;;;;;5136130;28;20176;-44
2021/08/30 07:19:09;;;;;;;15.27;12.43;;;26.70;62.90;;;;;;5135975;28;20033;-44
2021/08/30 07:21:35;;;;;;;21.70;12.70;;;26.70;63.30;;;;;;5135924;28;20027;-36
2021/08/30 07:24:01;;;;;;;24.17;18.52;;;26.70;63.20;;;;;;5136096;28;20031;-39
2021/08/30 07:26:26;;;;;;;84.43;49.20;;;26.70;63.30;;;;;;5135872;28;20015;-40
2021/08/30 07:28:52;;;;;;;45.08;30.50;;;26.80;63.50;;;;;;5136388;28;20023;-44
2021/08/30 07:31:18;;;;;;;53.03;33.67;;;26.80;63.40;;;;;;5135772;28;20322;-36
2021/08/30 07:33:43;;;;;;;29.88;19.58;;;26.80;63.30;;;;;;5136389;28;20409;-44
2021/08/30 07:36:09;;;;;;;33.50;23.88;;;26.80;63.50;;;;;;5135628;28;20031;-39
2021/08/30 07:38:35;;;;;;;30.08;23.60;;;26.90;63.70;;;;;;5136450;28;20360;-38
2021/08/30 07:41:00;;;;;;;37.92;26.67;;;26.90;64.30;;;;;;5136222;27;20441;-44
2021/08/30 07:43:27;;;;;;;32.90;22.35;;;26.90;63.60;;;;;;5139089;27;20039;-44
2021/08/30 07:45:52;;;;;;;37.63;28.27;;;27.00;64.00;;;;;;5139913;27;20028;-43
2021/08/30 07:48:18;;;;;;;32.83;25.90;;;27.00;64.10;;;;;;5140012;27;20072;-37
2021/08/30 07:50:44;;;;;;;40.40;26.75;;;27.00;63.90;;;;;;5139730;27;20102;-40
2021/08/30 07:53:10;;;;;;;33.13;26.42;;;26.90;63.60;;;;;;5139767;27;20057;-44
2021/08/30 07:55:36;;;;;;;56.33;44.85;;;26.90;63.70;;;;;;5139794;27;20054;-38
2021/08/30 07:58:04;;;;;;;67.03;58.78;;;26.90;63.80;;;;;;5140061;27;20023;-44
2021/08/30 08:00:30;;;;;;;30.60;25.30;;;26.90;63.80;;;;;;5139413;27;20407;-37
2021/08/30 08:02:56;;;;;;;36.60;30.63;;;26.90;63.80;;;;;;5140028;27;20030;-37
2021/08/30 08:05:22;;;;;;;26.88;22.35;;;26.90;63.90;;;;;;5139088;27;20035;-43
2021/08/30 08:07:47;;;;;;;31.20;22.85;;;26.90;63.90;;;;;;5139990;27;20030;-47
2021/08/30 08:10:13;;;;;;;33.03;27.60;;;26.90;64.00;;;;;;5139563;27;20042;-38
2021/08/30 08:12:39;;;;;;;24.52;16.83;;;26.90;64.00;;;;;;5139446;27;20024;-41
2021/08/30 08:15:05;;;;;;;36.30;21.77;;;26.90;63.90;;;;;;5139166;27;20495;-37
2021/08/30 08:17:31;;;;;;;27.17;19.08;;;27.00;64.10;;;;;;5138665;27;20084;-33
2021/08/30 08:19:56;;;;;;;30.50;21.67;;;26.90;63.90;;;;;;5139171;27;20035;-33
2021/08/30 08:22:22;;;;;;;24.83;18.13;;;27.00;64.70;;;;;;5138864;27;20024;-33
2021/08/30 08:24:48;;;;;;;23.25;14.65;;;27.00;64.20;;;;;;5139105;27;20418;-35
2021/08/30 08:27:14;;;;;;;20.00;16.80;;;27.00;64.20;;;;;;5138779;27;20030;-33
2021/08/30 08:29:39;;;;;;;28.83;20.02;;;27.00;64.40;;;;;;5138925;27;20019;-35
2021/08/30 08:32:05;;;;;;;26.88;21.13;;;27.00;64.30;;;;;;5138910;27;20023;-33
2021/08/30 08:34:31;;;;;;;31.75;19.20;;;27.00;64.10;;;;;;5138003;27;20093;-34
2021/08/30 08:37:02;;;;;;;33.10;19.38;;;27.10;64.10;;;;;;5138247;27;20047;-33
2021/08/30 08:39:28;;;;;;;22.67;14.90;;;27.10;64.00;;;;;;5138808;27;20087;-33
2021/08/30 08:41:53;;;;;;;22.88;16.40;;;27.10;64.00;;;;;;5138574;27;20023;-33
2021/08/30 08:44:19;;;;;;;19.50;16.40;;;27.20;63.90;;;;;;5138517;27;20027;-35
2021/08/30 08:46:45;;;;;;;20.98;15.50;;;27.20;63.80;;;;;;5138600;27;20326;-34
2021/08/30 08:49:10;;;;;;;20.20;15.32;;;27.20;63.70;;;;;;5138540;27;20319;-34
2021/08/30 08:51:36;;;;;;;23.08;15.95;;;27.30;63.80;;;;;;5138624;27;20102;-35
2021/08/30 08:54:06;;;;;;;26.92;20.75;;;27.20;63.50;;;;;;5137577;27;20143;-36
2021/08/30 08:56:32;;;;;;;25.58;17.83;;;27.30;63.50;;;;;;5138074;27;20029;-35
2021/08/30 08:58:58;;;;;;;23.90;14.55;;;27.30;63.20;;;;;;5138943;27;20027;-34
2021/08/30 09:01:25;;;;;;;21.95;14.55;;;27.30;62.80;;;;;;5138179;27;20116;-31
2021/08/30 09:03:55;;;;;;;24.60;19.15;;;27.30;63.20;;;;;;5138915;27;20027;-33
2021/08/30 09:06:27;;;;;;;21.20;15.02;;;27.30;62.60;;;;;;5138243;27;20031;-35
2021/08/30 09:09:04;;;;;;;23.40;15.32;;;27.30;62.50;;;;;;5138468;27;20037;-34
2021/08/30 09:11:36;;;;;;;18.92;13.52;;;27.30;62.50;;;;;;5137803;27;20407;-33
2021/08/30 09:14:02;;;;;;;17.92;13.07;;;27.40;62.30;;;;;;5138287;27;20415;-33
2021/08/30 09:16:28;;;;;;;25.10;13.55;;;27.40;62.20;;;;;;5119410;27;20027;-35
2021/08/30 09:19:15;;;;;;;21.60;14.38;;;27.50;62.20;;;;;;5138444;27;20032;-35
2021/08/30 09:21:47;;;;;;;17.48;13.55;;;27.60;62.20;;;;;;5137716;27;20027;-36
2021/08/30 09:24:25;;;;;;;18.35;13.77;;;27.60;61.30;;;;;;5138109;27;20031;-33
2021/08/30 09:26:53;;;;;;;20.75;12.05;;;27.70;61.30;;;;;;5138010;27;20080;-36
2021/08/30 09:29:22;;;;;;;24.58;13.15;;;27.80;61.30;;;;;;5137613;27;20031;-36
2021/08/30 09:31:59;;;;;;;27.80;14.73;;;27.90;60.50;;;;;;5137429;27;20019;-34
2021/08/30 09:34:53;;;;;;;17.20;12.77;;;27.90;60.10;;;;;;5137500;27;20062;-33
2021/08/30 09:37:23;;;;;;;20.42;13.70;;;28.00;60.10;;;;;;5109878;27;20483;-33
2021/08/30 09:39:57;;;;;;;19.33;12.93;;;28.00;59.90;;;;;;5137867;27;20069;-36
2021/08/30 09:42:24;;;;;;;23.63;14.60;;;28.10;59.90;;;;;;5137152;27;20066;-35
2021/08/30 09:44:50;;;;;;;18.15;12.02;;;28.10;59.80;;;;;;5137687;27;20158;-35
2021/08/30 09:47:21;;;;;;;22.67;13.00;;;28.10;59.70;;;;;;5137490;27;20027;-34
2021/08/30 09:49:48;;;;;;;18.30;12.95;;;28.20;58.70;;;;;;5137496;27;20438;-34
2021/08/30 09:52:14;;;;;;;23.27;13.95;;;28.30;58.20;;;;;;5136944;27;20114;-33
2021/08/30 09:54:40;;;;;;;28.73;12.45;;;28.30;57.90;;;;;;5137221;27;20481;-33
2021/08/30 09:57:06;;;;;;;19.42;12.05;;;28.40;57.90;;;;;;5119154;27;20031;-33
2021/08/30 09:59:33;;;;;;;28.90;16.50;;;28.50;57.50;;;;;;5137309;27;20134;-34
2021/08/30 10:02:02;;;;;;;18.50;12.70;;;28.50;57.70;;;;;;5137291;27;20045;-35
2021/08/30 10:04:29;;;;;;;27.73;13.63;;;28.60;57.60;;;;;;5136155;27;20024;-33
2021/08/30 10:06:55;;;;;;;21.85;13.68;;;28.60;57.80;;;;;;5136928;27;20079;-33
2021/08/30 10:09:22;;;;;;;24.10;15.40;;;28.60;57.50;;;;;;5137003;27;20032;-32
2021/08/30 10:11:54;;;;;;;26.17;15.65;;;28.70;57.60;;;;;;5136845;27;20023;-33
2021/08/30 10:14:23;;;;;;;25.05;14.02;;;28.70;57.70;;;;;;5136930;27;20038;-35
2021/08/30 10:16:49;;;;;;;23.40;12.15;;;28.80;57.50;;;;;;5136979;27;20027;-33
2021/08/30 10:19:43;;;;;;;19.17;11.98;;;28.80;57.10;;;;;;5137127;27;20034;-36
2021/08/30 10:22:17;;;;;;;21.08;11.65;;;28.80;56.90;;;;;;5136646;27;20030;-32
2021/08/30 10:24:43;;;;;;;27.92;13.50;;;28.80;56.30;;;;;;5137628;27;20050;-32
2021/08/30 10:27:10;;;;;;;26.85;12.35;;;28.80;56.10;;;;;;5136515;27;20310;-34
2021/08/30 10:29:40;;;;;;;21.05;10.23;;;28.80;55.70;;;;;;5137048;27;20035;-34
2021/08/30 10:32:18;;;;;;;23.23;12.65;;;28.90;55.10;;;;;;5136662;27;20027;-34
2021/08/30 10:34:44;;;;;;;22.48;14.52;;;28.90;55.30;;;;;;5118538;27;20027;-33
2021/08/30 10:37:18;;;;;;;19.45;11.80;;;29.00;56.00;;;;;;5136548;27;20038;-33
2021/08/30 10:39:47;;;;;;;19.42;10.48;;;29.10;54.80;;;;;;5136734;27;20027;-34
2021/08/30 10:42:16;;;;;;;19.10;11.27;;;29.10;54.70;;;;;;5136707;27;20318;-35
2021/08/30 10:44:50;;;;;;;19.73;12.15;;;29.10;54.20;;;;;;5136872;27;20316;-35
2021/08/30 10:47:15;;;;;;;17.92;10.48;;;29.10;54.50;;;;;;5136317;27;20038;-32
2021/08/30 10:49:42;;;;;;;21.63;10.90;;;29.10;54.30;;;;;;5136396;27;20253;-32
2021/08/30 10:52:14;;;;;;;16.45;10.43;;;29.10;53.90;;;;;;5136517;27;20410;-32
2021/08/30 10:54:56;;;;;;;17.42;11.70;;;29.10;53.90;;;;;;5135910;27;20059;-34
2021/08/30 10:57:35;;;;;;;17.25;10.98;;;29.00;54.10;;;;;;5136407;28;20026;-33
2021/08/30 11:00:01;;;;;;;19.05;10.85;;;29.00;53.90;;;;;;5136694;28;20026;-33
2021/08/30 11:02:47;;;;;;;16.73;10.05;;;29.00;53.90;;;;;;5117828;28;20027;-34
2021/08/30 11:05:13;;;;;;;18.02;11.88;;;29.00;53.60;;;;;;5136132;28;20027;-34
2021/08/30 11:07:39;;;;;;;16.60;11.13;;;29.10;54.00;;;;;;5136455;28;20031;-33
2021/08/30 11:10:07;;;;;;;18.73;10.13;;;29.10;53.90;;;;;;5136501;28;20111;-33
2021/08/30 11:12:32;;;;;;;18.45;10.00;;;29.10;54.00;;;;;;5136361;28;20031;-35
2021/08/30 11:14:59;;;;;;;21.27;11.00;;;29.10;54.20;;;;;;5136111;28;20092;-34
2021/08/30 11:17:28;;;;;;;19.35;10.60;;;29.10;54.10;;;;;;5138833;27;20056;-33
2021/08/30 11:19:58;;;;;;;20.70;9.50;;;29.10;54.50;;;;;;5140449;27;20100;-35
2021/08/30 11:22:24;;;;;;;24.92;9.75;;;29.20;53.70;;;;;;5140115;27;20730;-34
2021/08/30 11:24:50;;;;;;;15.02;10.48;;;29.30;53.70;;;;;;5140185;27;20042;-34
2021/08/30 11:27:25;;;;;;;18.38;10.70;;;29.30;53.80;;;;;;5140421;27;20242;-33
2021/08/30 11:29:57;;;;;;;21.15;9.45;;;29.30;54.20;;;;;;5140274;27;20024;-32
2021/08/30 11:32:25;;;;;;;33.88;12.77;;;29.30;54.40;;;;;;5139790;27;20023;-35
2021/08/30 11:34:52;;;;;;;26.45;10.32;;;29.30;54.60;;;;;;5139788;27;20031;-36
2021/08/30 11:37:23;;;;;;;17.30;10.35;;;29.30;55.00;;;;;;5139704;27;20028;-37
2021/08/30 11:39:50;;;;;;;17.70;9.95;;;29.30;55.10;;;;;;5140426;27;20051;-42
2021/08/30 11:42:20;;;;;;;13.90;10.10;;;29.30;55.30;;;;;;5140110;27;20027;-40
2021/08/30 11:44:46;;;;;;;15.52;8.98;;;29.30;55.40;;;;;;5140493;27;20046;-38
2021/08/30 11:47:17;;;;;;;16.10;9.90;;;29.40;55.40;;;;;;5140034;27;20034;-42
2021/08/30 11:49:49;;;;;;;25.20;9.43;;;29.40;55.40;;;;;;5140287;27;20360;-41
2021/08/30 11:52:20;;;;;;;16.48;9.48;;;29.50;55.40;;;;;;5139878;27;20152;-44
2021/08/30 11:55:04;;;;;;;19.20;10.55;;;29.60;54.80;;;;;;5139611;27;20449;-44
2021/08/30 11:58:02;;;;;;;18.23;11.57;;;29.70;54.90;;;;;;5139573;27;20031;-44
2021/08/30 12:00:29;;;;;;;19.55;9.27;;;29.80;54.80;;;;;;5138841;27;20042;-44
2021/08/30 12:02:57;;;;;;;22.42;12.43;;;30.00;54.50;;;;;;5139865;27;20333;-44
2021/08/30 12:05:32;;;;;;;28.77;15.27;;;30.10;54.20;;;;;;5139330;27;20039;-44
2021/08/30 12:07:59;;;;;;;25.67;14.15;;;30.20;54.10;;;;;;5139780;27;20015;-44
2021/08/30 12:10:27;;;;;;;31.45;16.05;;;30.30;53.60;;;;;;5138715;27;20031;-44
2021/08/30 12:15:26;;;;;;;29.77;15.93;;;30.60;53.70;;;;;;5139376;27;20069;-44
2021/08/30 12:17:56;;;;;;;31.45;18.52;;;30.80;53.20;;;;;;5139428;27;20088;-45
2021/08/30 12:20:31;;;;;;;34.65;18.58;;;30.90;52.50;;;;;;5139217;27;20035;-43
2021/08/30 12:23:02;;;;;;;30.17;18.90;;;31.10;51.90;;;;;;5139594;27;20027;-45
2021/08/30 12:25:31;;;;;;;28.45;16.92;;;31.20;51.60;;;;;;5138886;27;20035;-46
2021/08/30 12:27:58;;;;;;;33.63;21.15;;;31.30;51.60;;;;;;5138401;27;20026;-46
2021/08/30 12:30:28;;;;;;;19.17;12.43;;;31.30;51.20;;;;;;5138941;27;20039;-46
2021/08/30 12:33:00;;;;;;;24.10;14.07;;;31.40;50.90;;;;;;5139647;27;20339;-45
2021/08/30 12:35:31;;;;;;;24.83;12.57;;;31.50;50.70;;;;;;5138706;27;20149;-45
2021/08/30 12:38:02;;;;;;;24.13;12.73;;;31.70;50.70;;;;;;5139127;27;20031;-47